createdAt,value
2024-02-20T00:00:14.180Z,8.20
2024-02-20T00:02:43.240Z,10.30
2024-02-20T00:05:11.310Z,9.50
2024-02-20T00:07:41.890Z,9.60
2024-02-20T00:10:10.587Z,10.70
2024-02-20T00:12:38.745Z,9.10
2024-02-20T00:15:08.353Z,9.60
2024-02-20T00:17:36.336Z,9.20
2024-02-20T00:20:07.224Z,8.10
2024-02-20T00:22:35.288Z,7.90
2024-02-20T00:25:04.113Z,9.00
2024-02-20T00:27:33.417Z,8.30
2024-02-20T00:30:01.254Z,9.00
2024-02-20T00:32:28.882Z,8.30
2024-02-20T00:34:57.387Z,7.70
2024-02-20T00:37:25.132Z,8.10
2024-02-20T00:39:52.722Z,9.00
2024-02-20T00:42:22.724Z,8.80
2024-02-20T00:44:52.469Z,7.90
2024-02-20T00:47:20.210Z,8.90
2024-02-20T00:49:47.810Z,7.30
2024-02-20T00:52:15.533Z,7.50
2024-02-20T00:54:43.432Z,7.30
2024-02-20T00:57:11.714Z,7.10
2024-02-20T00:59:39.691Z,6.80
2024-02-20T01:02:12.878Z,7.20
2024-02-20T01:04:41.509Z,6.90
2024-02-20T01:07:09.466Z,7.50
2024-02-20T01:09:37.831Z,7.30
2024-02-20T01:12:05.773Z,7.00
2024-02-20T01:14:33.561Z,6.80
2024-02-20T01:17:01.018Z,7.00
2024-02-20T01:19:28.560Z,7.70
2024-02-20T01:21:56.434Z,7.10
2024-02-20T01:24:24.102Z,7.50
2024-02-20T01:26:51.640Z,7.60
2024-02-20T01:29:23.288Z,7.50
2024-02-20T01:31:51.048Z,7.70
2024-02-20T01:34:18.755Z,7.10
2024-02-20T01:36:46.578Z,7.40
2024-02-20T01:39:14.034Z,6.80
2024-02-20T01:41:41.473Z,7.10
2024-02-20T01:44:10.385Z,6.60
2024-02-20T01:46:38.239Z,7.60
2024-02-20T01:49:05.988Z,7.00
2024-02-20T01:51:33.857Z,6.90
2024-02-20T01:54:01.419Z,7.70
2024-02-20T01:56:28.808Z,7.10
2024-02-20T01:58:59.369Z,7.10
2024-02-20T02:01:27.802Z,6.50
2024-02-20T02:03:55.366Z,6.50
2024-02-20T02:06:32.375Z,6.30
2024-02-20T02:09:00.266Z,7.00
2024-02-20T02:11:27.997Z,7.20
2024-02-20T02:13:55.447Z,7.30
2024-02-20T02:16:22.919Z,6.70
2024-02-20T02:18:51.691Z,6.40
2024-02-20T02:21:20.163Z,6.90
2024-02-20T02:23:47.849Z,7.00
2024-02-20T02:26:15.268Z,5.70
2024-02-20T02:28:48.457Z,6.80
2024-02-20T02:31:17.857Z,5.90
2024-02-20T02:33:47.451Z,6.80
2024-02-20T02:36:15.473Z,6.10
2024-02-20T02:38:44.176Z,5.90
2024-02-20T02:41:13.439Z,6.20
2024-02-20T02:43:41.378Z,6.30
2024-02-20T02:46:12.046Z,6.80
2024-02-20T02:48:39.512Z,6.10
2024-02-20T02:51:09.797Z,6.50
2024-02-20T02:53:37.419Z,6.20
2024-02-20T02:56:09.881Z,6.10
2024-02-20T02:58:37.498Z,6.50
2024-02-20T03:01:05.665Z,5.90
2024-02-20T03:03:33.206Z,6.30
2024-02-20T03:06:08.276Z,5.90
2024-02-20T03:08:37.694Z,5.60
2024-02-20T03:11:07.217Z,6.70
2024-02-20T03:13:35.237Z,5.90
2024-02-20T03:16:09.290Z,5.60
2024-02-20T03:18:38.164Z,6.60
2024-02-20T03:21:07.614Z,6.30
2024-02-20T03:23:35.167Z,6.00
2024-02-20T03:26:03.236Z,7.20
2024-02-20T03:28:31.051Z,7.00
2024-02-20T03:30:58.916Z,7.30
2024-02-20T03:33:28.053Z,6.90
2024-02-20T03:35:55.701Z,6.70
2024-02-20T03:38:25.681Z,6.20
2024-02-20T03:40:53.194Z,6.50
2024-02-20T03:43:20.782Z,6.10
2024-02-20T03:45:48.204Z,5.60
2024-02-20T03:48:15.814Z,5.80
2024-02-20T03:50:43.401Z,5.40
2024-02-20T03:53:11.189Z,5.60
2024-02-20T03:55:38.678Z,5.80
2024-02-20T03:58:06.163Z,5.60
2024-02-20T04:00:33.689Z,5.10
2024-02-20T04:03:02.179Z,5.90
2024-02-20T04:05:29.678Z,5.60
2024-02-20T04:07:58.665Z,5.50
2024-02-20T04:10:26.141Z,5.70
2024-02-20T04:12:53.632Z,4.80
2024-02-20T04:15:21.132Z,5.40
2024-02-20T04:17:48.696Z,5.40
2024-02-20T04:20:16.628Z,4.60
2024-02-20T04:22:44.247Z,5.20
2024-02-20T04:25:11.896Z,4.90
2024-02-20T04:27:39.810Z,4.80
2024-02-20T04:30:08.856Z,4.50
2024-02-20T04:32:36.347Z,4.50
2024-02-20T04:35:04.150Z,5.00
2024-02-20T04:37:31.931Z,5.10
2024-02-20T04:39:59.450Z,3.90
2024-02-20T04:42:28.088Z,4.50
2024-02-20T04:44:55.606Z,4.90
2024-02-20T04:47:24.593Z,4.60
2024-02-20T04:49:53.784Z,4.10
2024-02-20T04:52:21.441Z,3.90
2024-02-20T04:54:49.043Z,3.60
2024-02-20T04:57:16.612Z,3.90
2024-02-20T04:59:47.472Z,3.50
2024-02-20T05:02:16.624Z,4.10
2024-02-20T05:04:44.424Z,4.10
2024-02-20T05:07:12.264Z,3.70
2024-02-20T05:09:39.779Z,4.00
2024-02-20T05:12:07.747Z,4.00
2024-02-20T05:14:35.252Z,4.30
2024-02-20T05:17:02.959Z,4.30
2024-02-20T05:19:30.604Z,3.60
2024-02-20T05:21:58.332Z,4.50
2024-02-20T05:24:26.398Z,3.90
2024-02-20T05:26:53.975Z,4.10
2024-02-20T05:29:22.908Z,3.90
2024-02-20T05:31:50.572Z,3.80
2024-02-20T05:34:18.235Z,3.70
2024-02-20T05:36:45.888Z,4.30
2024-02-20T05:39:13.533Z,4.30
2024-02-20T05:41:41.531Z,4.00
2024-02-20T05:44:09.051Z,4.60
2024-02-20T05:46:37.700Z,4.30
2024-02-20T05:49:05.918Z,4.10
2024-02-20T05:51:33.750Z,4.50
2024-02-20T05:54:01.380Z,4.20
2024-02-20T05:56:28.989Z,4.80
2024-02-20T05:58:56.599Z,4.70
2024-02-20T06:01:24.252Z,4.90
2024-02-20T06:03:51.868Z,5.00
2024-02-20T06:06:19.557Z,4.30
2024-02-20T06:08:47.481Z,4.50
2024-02-20T06:11:19.670Z,4.00
2024-02-20T06:13:49.589Z,3.90
2024-02-20T06:16:19.408Z,4.40
2024-02-20T06:18:49.965Z,3.80
2024-02-20T06:21:19.169Z,3.80
2024-02-20T06:23:49.385Z,3.80
2024-02-20T06:26:20.212Z,4.50
2024-02-20T06:28:50.542Z,3.50
2024-02-20T06:31:20.531Z,3.30
2024-02-20T06:33:51.585Z,3.40
2024-02-20T06:36:22.131Z,3.40
2024-02-20T06:38:51.121Z,3.50
2024-02-20T06:41:22.488Z,3.30
2024-02-20T06:43:52.802Z,3.60
2024-02-20T06:46:25.623Z,3.50
2024-02-20T06:48:56.712Z,3.80
2024-02-20T06:51:28.346Z,4.00
2024-02-20T06:53:58.400Z,3.40
2024-02-20T06:56:28.567Z,3.30
2024-02-20T06:58:59.539Z,3.50
2024-02-20T07:01:29.951Z,3.90
2024-02-20T07:04:00.705Z,3.80
2024-02-20T07:06:36.530Z,3.70
2024-02-20T07:09:06.248Z,4.40
2024-02-20T07:11:35.288Z,3.60
2024-02-20T07:21:43.368Z,4.00
2024-02-20T07:24:10.810Z,4.30
2024-02-20T07:26:38.285Z,3.90
2024-02-20T07:29:05.839Z,3.60
2024-02-20T07:31:36.099Z,3.70
2024-02-20T07:34:09.536Z,4.90
2024-02-20T07:36:38.794Z,4.00
2024-02-20T07:46:50.438Z,3.70
2024-02-20T07:49:18.444Z,3.70
2024-02-20T07:59:27.802Z,3.70
2024-02-20T08:01:55.527Z,4.10
2024-02-20T08:04:24.299Z,4.00
2024-02-20T08:06:53.202Z,3.50
2024-02-20T08:09:21.021Z,4.00
2024-02-20T08:11:48.597Z,3.60
2024-02-20T08:16:50.284Z,3.30
2024-02-20T08:19:17.774Z,3.30
2024-02-20T08:21:45.386Z,4.00
2024-02-20T08:24:12.991Z,4.20
2024-02-20T08:26:40.570Z,4.60
2024-02-20T08:29:09.747Z,4.60
2024-02-20T08:31:37.711Z,3.90
2024-02-20T08:34:07.320Z,4.10
2024-02-20T08:36:39.362Z,3.70
2024-02-20T08:39:07.486Z,3.20
2024-02-20T08:41:35.223Z,3.10
2024-02-20T08:44:02.827Z,3.20
2024-02-20T08:46:32.663Z,3.70
2024-02-20T08:49:00.279Z,4.20
2024-02-20T08:59:13.879Z,3.70
2024-02-20T09:01:41.917Z,4.00
2024-02-20T09:04:10.695Z,5.10
2024-02-20T09:06:38.660Z,4.50
2024-02-20T09:09:06.147Z,4.20
2024-02-20T09:11:33.850Z,3.50
2024-02-20T09:14:01.910Z,3.30
2024-02-20T09:16:29.612Z,3.50
2024-02-20T09:18:57.182Z,3.60
2024-02-20T09:21:24.726Z,3.20
2024-02-20T09:23:52.280Z,3.40
2024-02-20T09:26:21.808Z,4.00
2024-02-20T09:28:49.414Z,4.00
2024-02-20T09:31:17.144Z,3.60
2024-02-20T09:33:44.748Z,3.60
2024-02-20T09:36:12.656Z,4.00
2024-02-20T09:38:40.337Z,3.70
2024-02-20T09:41:08.488Z,3.30
2024-02-20T09:43:37.297Z,3.90
2024-02-20T09:46:08.368Z,3.70
2024-02-20T09:48:36.369Z,3.40
2024-02-20T09:51:04.980Z,3.30
2024-02-20T09:53:35.609Z,4.20
2024-02-20T09:56:03.251Z,3.60
2024-02-20T09:58:33.604Z,4.00
2024-02-20T10:01:08.329Z,3.60
2024-02-20T10:03:37.587Z,3.60
2024-02-20T10:06:05.964Z,3.50
2024-02-20T10:08:34.117Z,3.10
2024-02-20T10:11:03.192Z,3.50
2024-02-20T10:13:31.475Z,3.70
2024-02-20T10:16:06.152Z,3.90
2024-02-20T10:18:33.762Z,4.00
2024-02-20T10:21:06.574Z,3.00
2024-02-20T10:23:34.288Z,3.50
2024-02-20T10:26:03.198Z,2.80
2024-02-20T10:28:31.928Z,3.80
2024-02-20T10:30:59.682Z,3.80
2024-02-20T10:33:28.556Z,4.10
2024-02-20T10:36:04.872Z,4.90
2024-02-20T10:38:32.961Z,4.10
2024-02-20T10:41:01.145Z,4.10
2024-02-20T10:43:29.633Z,3.70
2024-02-20T10:45:58.073Z,3.90
2024-02-20T10:48:29.185Z,4.60
2024-02-20T10:50:57.311Z,3.10
2024-02-20T10:53:24.983Z,3.50
2024-02-20T10:55:52.835Z,4.00
2024-02-20T10:58:21.820Z,3.90
2024-02-20T11:00:49.529Z,4.70
2024-02-20T11:03:17.963Z,4.20
2024-02-20T11:05:45.654Z,4.40
2024-02-20T11:08:13.932Z,3.80
2024-02-20T11:10:42.913Z,4.90
2024-02-20T11:13:15.391Z,5.20
2024-02-20T11:15:43.510Z,4.90
2024-02-20T11:18:18.609Z,3.60
2024-02-20T11:20:46.917Z,4.20
2024-02-20T11:23:14.423Z,3.80
2024-02-20T11:25:45.251Z,4.00
2024-02-20T11:28:17.357Z,4.70
2024-02-20T11:30:49.097Z,5.10
2024-02-20T11:33:18.588Z,4.80
2024-02-20T11:35:48.277Z,5.30
2024-02-20T11:38:21.279Z,5.30
2024-02-20T11:40:49.245Z,4.70
2024-02-20T11:43:21.099Z,4.90
2024-02-20T11:45:51.456Z,4.90
2024-02-20T11:48:19.280Z,5.40
2024-02-20T11:50:48.344Z,4.90
2024-02-20T11:53:17.360Z,5.20
2024-02-20T11:55:55.458Z,5.10
2024-02-20T11:58:27.318Z,6.00
2024-02-20T12:01:05.193Z,5.80
2024-02-20T12:03:35.575Z,6.00
2024-02-20T12:06:09.294Z,6.40
2024-02-20T12:08:46.440Z,6.80
2024-02-20T12:11:23.782Z,6.20
2024-02-20T12:13:53.176Z,6.90
2024-02-20T12:16:31.134Z,6.20
2024-02-20T12:21:30.253Z,5.40
2024-02-20T12:23:59.044Z,6.30
2024-02-20T12:26:27.944Z,6.10
2024-02-20T12:28:56.805Z,6.70
2024-02-20T12:31:26.139Z,7.20
2024-02-20T12:33:54.180Z,7.30
2024-02-20T12:36:22.006Z,6.70
2024-02-20T12:38:49.838Z,7.10
2024-02-20T12:41:17.404Z,8.00
2024-02-20T12:43:45.185Z,6.90
2024-02-20T12:46:12.922Z,6.80
2024-02-20T12:48:42.313Z,6.80
2024-02-20T12:51:11.395Z,8.10
2024-02-20T12:53:39.798Z,8.00
2024-02-20T12:56:09.639Z,6.90
2024-02-20T12:58:37.234Z,7.60
2024-02-20T13:01:04.897Z,8.30
2024-02-20T13:03:32.674Z,8.30
2024-02-20T13:06:00.517Z,7.90
2024-02-20T13:08:28.148Z,8.20
2024-02-20T13:10:55.820Z,8.80
2024-02-20T13:13:23.493Z,7.80
2024-02-20T13:15:52.419Z,8.60
2024-02-20T13:18:20.167Z,8.20
2024-02-20T13:20:47.804Z,8.10
2024-02-20T13:23:15.469Z,9.10
2024-02-20T13:25:43.758Z,9.20
2024-02-20T13:28:12.847Z,9.00
2024-02-20T13:30:40.658Z,9.70
2024-02-20T13:33:09.333Z,8.70
2024-02-20T13:35:37.004Z,9.00
2024-02-20T13:38:04.820Z,8.90
2024-02-20T13:40:32.390Z,8.80
2024-02-20T13:43:01.711Z,8.90
2024-02-20T13:45:29.625Z,9.20
2024-02-20T13:47:57.255Z,9.10
2024-02-20T13:50:24.985Z,8.60
2024-02-20T13:52:54.407Z,8.90
2024-02-20T13:55:22.050Z,9.10
2024-02-20T13:57:49.723Z,8.90
2024-02-20T14:00:18.200Z,10.30
2024-02-20T14:02:46.026Z,10.20
2024-02-20T14:05:13.741Z,9.70
2024-02-20T14:07:42.058Z,8.90
2024-02-20T14:10:09.877Z,9.80
2024-02-20T14:12:37.667Z,9.80
2024-02-20T14:15:10.818Z,8.60
2024-02-20T14:17:38.950Z,9.40
2024-02-20T14:20:09.908Z,9.40
2024-02-20T14:22:37.487Z,9.90
2024-02-20T14:25:05.876Z,9.70
2024-02-20T14:27:33.702Z,10.00
2024-02-20T14:30:01.404Z,9.70
2024-02-20T14:32:29.058Z,9.80
2024-02-20T14:34:56.703Z,10.30
2024-02-20T14:37:24.377Z,11.40
2024-02-20T14:39:51.874Z,10.00
2024-02-20T14:42:19.546Z,11.20
2024-02-20T14:44:47.026Z,11.70
2024-02-20T14:47:14.732Z,11.70
2024-02-20T14:49:42.459Z,13.20
2024-02-20T15:05:58.567Z,10.60
2024-02-20T15:08:27.663Z,10.20
2024-02-20T15:10:56.704Z,11.10
2024-02-20T15:13:24.349Z,11.90
2024-02-20T15:15:52.292Z,10.60
2024-02-20T15:18:20.197Z,11.70
2024-02-20T15:20:48.229Z,11.70
2024-02-20T15:23:17.360Z,11.70
2024-02-20T15:25:47.074Z,11.10
2024-02-20T15:28:15.014Z,12.20
2024-02-20T15:30:42.772Z,11.00
2024-02-20T15:33:10.592Z,11.40
2024-02-20T15:35:38.492Z,11.90
2024-02-20T15:38:06.238Z,10.10
2024-02-20T15:40:41.126Z,12.30
2024-02-20T15:43:15.202Z,12.40
2024-02-20T15:45:44.488Z,11.30
2024-02-20T15:48:13.157Z,12.30
2024-02-20T15:50:44.415Z,13.00
2024-02-20T15:53:20.543Z,13.80
2024-02-20T15:55:48.643Z,11.70
2024-02-20T15:58:17.227Z,12.10
2024-02-20T16:00:45.364Z,12.70
2024-02-20T16:03:14.206Z,11.90
2024-02-20T16:05:42.015Z,14.00
2024-02-20T16:08:15.172Z,13.70
2024-02-20T16:10:42.793Z,12.90
2024-02-20T16:13:10.537Z,14.30
2024-02-20T16:15:38.174Z,12.10
2024-02-20T16:18:06.793Z,12.40
2024-02-20T16:20:34.757Z,13.20
2024-02-20T16:23:03.100Z,13.40
2024-02-20T16:25:31.000Z,13.60
2024-02-20T16:27:58.967Z,12.60
2024-02-20T16:30:26.608Z,13.50
2024-02-20T16:32:54.216Z,13.80
2024-02-20T16:35:22.014Z,13.20
2024-02-20T16:37:49.847Z,14.20
2024-02-20T16:40:20.239Z,13.50
2024-02-20T16:42:48.510Z,15.20
2024-02-20T16:45:16.877Z,13.60
2024-02-20T16:47:45.081Z,13.80
2024-02-20T16:58:31.293Z,13.20
2024-02-20T17:00:59.025Z,15.10
2024-02-20T17:03:26.897Z,15.80
2024-02-20T17:05:54.579Z,14.30
2024-02-20T17:08:25.704Z,14.30
2024-02-20T17:10:53.917Z,14.10
2024-02-20T17:13:21.867Z,14.70
2024-02-20T17:15:49.736Z,13.70
2024-02-20T17:18:17.516Z,14.80
2024-02-20T17:20:45.205Z,13.70
2024-02-20T17:23:16.257Z,15.80
2024-02-20T17:25:44.584Z,14.90
2024-02-20T17:28:12.334Z,14.00
2024-02-20T17:30:40.165Z,14.90
2024-02-20T17:33:07.765Z,14.30
2024-02-20T17:35:35.557Z,15.90
2024-02-20T17:38:05.593Z,14.40
2024-02-20T17:40:35.209Z,15.90
2024-02-20T17:43:03.395Z,15.40
2024-02-20T17:45:32.099Z,15.00
2024-02-20T17:47:59.687Z,16.40
2024-02-20T17:50:29.132Z,16.40
2024-02-20T17:52:56.860Z,15.70
2024-02-20T17:55:27.494Z,14.60
2024-02-20T17:57:56.038Z,16.00
2024-02-20T18:00:23.701Z,16.80
2024-02-20T18:02:51.252Z,15.80
2024-02-20T18:05:18.856Z,15.20
2024-02-20T18:07:47.553Z,14.10
2024-02-20T18:10:15.517Z,14.20
2024-02-20T18:12:43.371Z,16.00
2024-02-20T18:15:11.201Z,14.70
2024-02-20T18:17:38.926Z,14.70
2024-02-20T18:20:07.372Z,15.10
2024-02-20T18:22:35.024Z,16.20
2024-02-20T18:25:04.235Z,15.50
2024-02-20T18:27:32.299Z,15.70
2024-02-20T18:29:59.862Z,15.30
2024-02-20T18:32:27.864Z,14.80
2024-02-20T18:34:55.598Z,14.30
2024-02-20T18:37:23.355Z,15.30
2024-02-20T18:39:51.535Z,13.80
2024-02-20T18:42:19.095Z,13.80
2024-02-20T18:44:46.779Z,14.50
2024-02-20T18:47:14.348Z,13.10
2024-02-20T18:49:43.236Z,12.90
2024-02-20T18:52:10.900Z,14.70
2024-02-20T18:57:06.213Z,16.30
2024-02-20T18:59:33.671Z,16.90
2024-02-20T19:02:07.887Z,15.40
2024-02-20T19:04:41.833Z,14.30
2024-02-20T19:07:09.417Z,14.60
2024-02-20T19:09:37.435Z,14.20
2024-02-20T19:12:06.044Z,14.10
2024-02-20T19:14:33.804Z,13.50
2024-02-20T19:17:01.426Z,13.20
2024-02-20T19:19:29.239Z,13.20
2024-02-20T19:21:57.360Z,12.70
2024-02-20T19:24:25.144Z,13.30
2024-02-20T19:26:53.055Z,12.60
2024-02-20T19:29:25.695Z,11.80
2024-02-20T19:31:53.522Z,11.70
2024-02-20T19:34:21.572Z,12.80
2024-02-20T19:36:49.301Z,12.50
2024-02-20T19:39:16.881Z,13.20
2024-02-20T19:41:44.454Z,13.00
2024-02-20T19:44:12.308Z,12.90
2024-02-20T19:46:40.129Z,13.00
2024-02-20T19:49:07.874Z,13.20
2024-02-20T19:51:35.600Z,12.80
2024-02-20T19:54:04.588Z,13.20
2024-02-20T19:56:32.338Z,12.70
2024-02-20T19:58:59.965Z,13.00
2024-02-20T20:01:27.734Z,14.80
2024-02-20T20:03:55.387Z,13.50
2024-02-20T20:06:24.213Z,12.90
2024-02-20T20:08:51.829Z,13.30
2024-02-20T20:11:19.563Z,12.50
2024-02-20T20:13:47.799Z,13.30
2024-02-20T20:16:15.819Z,12.40
2024-02-20T20:18:43.873Z,12.80
2024-02-20T20:21:12.375Z,12.60
2024-02-20T20:23:43.031Z,12.80
2024-02-20T20:26:12.024Z,13.30
2024-02-20T20:28:39.730Z,14.00
2024-02-20T20:31:07.412Z,14.20
2024-02-20T20:35:09.512Z,13.80
2024-02-20T20:37:37.229Z,13.60
2024-02-20T20:40:08.820Z,14.70
2024-02-20T20:42:36.903Z,15.00
2024-02-20T20:45:05.863Z,14.00
2024-02-20T20:47:36.600Z,14.70
2024-02-20T20:50:04.958Z,14.30
2024-02-20T20:52:32.997Z,13.60
2024-02-20T20:55:07.018Z,14.50
2024-02-20T20:57:34.572Z,14.40
2024-02-20T21:00:02.181Z,14.40
2024-02-20T21:02:29.643Z,15.80
2024-02-20T21:04:57.298Z,15.20
2024-02-20T21:07:25.223Z,14.80
2024-02-20T21:09:53.008Z,14.50
2024-02-20T21:12:20.888Z,14.40
2024-02-20T21:14:48.787Z,15.10
2024-02-20T21:17:16.421Z,14.70
2024-02-20T21:19:44.721Z,16.00
2024-02-20T21:22:12.731Z,15.90
2024-02-20T21:24:40.878Z,15.90
2024-02-20T21:27:08.542Z,15.60
2024-02-20T21:29:36.775Z,15.30
2024-02-20T21:32:04.934Z,15.00
2024-02-20T21:34:32.746Z,15.80
2024-02-20T21:37:00.678Z,15.50
2024-02-20T21:39:28.275Z,14.40
2024-02-20T21:41:56.390Z,15.60
2024-02-20T21:44:24.468Z,16.00
2024-02-20T21:54:29.865Z,15.30
2024-02-20T21:56:57.737Z,15.30
2024-02-20T21:59:25.484Z,16.50
2024-02-20T22:01:53.183Z,15.20
2024-02-20T22:04:21.191Z,17.00
2024-02-20T22:06:49.178Z,16.60
2024-02-20T22:17:00.138Z,17.10
2024-02-20T22:19:28.051Z,16.20
2024-02-20T22:21:56.185Z,16.10
2024-02-20T22:24:23.848Z,15.60
2024-02-20T22:26:51.685Z,17.00
2024-02-20T22:29:19.385Z,18.10
2024-02-20T22:31:47.129Z,17.00
2024-02-20T22:34:14.803Z,16.70
2024-02-20T22:36:42.684Z,17.10
2024-02-20T22:39:10.586Z,18.00
2024-02-20T22:41:38.312Z,16.40
2024-02-20T22:44:06.075Z,17.30
2024-02-20T22:46:34.759Z,15.70
2024-02-20T22:49:04.665Z,16.20
2024-02-20T22:51:32.473Z,16.80
2024-02-20T22:54:01.961Z,15.00
2024-02-20T22:56:31.280Z,16.20
2024-02-20T22:58:59.036Z,15.60
2024-02-20T23:01:27.098Z,15.80
2024-02-20T23:03:54.847Z,15.70
2024-02-20T23:06:22.590Z,15.70
2024-02-20T23:08:50.284Z,14.60
2024-02-20T23:19:02.111Z,16.60
2024-02-20T23:21:29.801Z,15.00
2024-02-20T23:23:57.361Z,15.00
2024-02-20T23:26:25.035Z,16.30
2024-02-20T23:28:52.668Z,15.40
2024-02-20T23:31:21.977Z,16.10
2024-02-20T23:33:49.735Z,16.20
2024-02-20T23:36:17.420Z,16.20
2024-02-20T23:38:46.522Z,16.40
2024-02-20T23:41:13.977Z,16.60
2024-02-20T23:43:41.585Z,16.70
2024-02-20T23:46:09.310Z,15.70
2024-02-20T23:48:36.923Z,16.20
2024-02-20T23:51:04.767Z,17.20
2024-02-20T23:53:32.220Z,16.50
2024-02-20T23:55:59.801Z,16.60
